Terminal Aerodrome Forecast
Issued by NWS

Home | Current Version | Previous Version | Text Only | Print | Product List | Glossary On
Versions: 1 2 3 4 5 6 7 8 9 10 11 12 13 14 15 16 17
000
FTUS46 KMTR 251720
TAFOAK
TAF
KOAK 251720Z 2518/2624 30006KT P6SM FEW070 SCT120
     FM252100 27015KT P6SM FEW030 FEW070 SCT100
     FM260300 27012KT P6SM FEW020 FEW040 SCT080
     FM260500 27011KT P6SM FEW015 SCT025 BKN050
     FM261000 26009KT P6SM FEW012 SCT020 BKN025
     FM261500 25008KT P6SM VCSH SCT015 OVC025
     FM262000 27011KT P6SM SCT020 SCT050=

USA.gov is the U.S. government's official web portal to all federal, state and local government web resources and services.